Record high temperature 45.5°C Record low temperature -0.3°C Record high gust 87.3 km/h Record high average 77.7 km/h Record daily rain 484.8 mm Record low windchill -5.8°C Record high barometer 1043.6 hPa Record low barometer 978.0 hPa
Daily high pressure 1017.1 mb Daily low pressure 1009.3 mb Daily low windchill 21.0°C Daily high heat index 32.3°C Daily high gust speed 37.0 kmh E Daily high average speed 19.1 kmh ESE
MeteoMurcia.com
Ultima grabación a: 21:25 Data: 29 June 2022, time of next update: 21:30
Tiempo actualClear Temperatura actual27.1°C (80.8°F) (Indice de Calor28.2°C ), Temperatura aparente 27.6°C
Temperatura máxima (desde medianoche)32.4°C at: 14:20 Temperatura mínima (desde medianoche)21.0°C at: 06:56
Velocidad media del viento (diez minutos)10.0 kmh (5.4 kts) Dirección del viento (diez minutos)E (92°)
Indice de Calor28.2°C ráfagas maxima (última hora)24.4 kmh (13.2 kts) at: 20:28
ráfagas maxima (desde medianoche)37.0 kmh (20.0 kts) at: 15:49 Maximo media de un minuto (desde medianoche)19.1 kmh (10.3 kts) at: 17:01
Lluvia (última hora)0.0 mm Lluvia (desde medianoche)0.0 mm (0.00 in.)---
Lluvia Este mes 6.7 mm (0.26 in.) Lluvia Hasta la fecha este año330.8 mm (13.02 in.)
Lluvia máxima por minuto (última hora)0.0 mm/min Lluvia maxima por hora (últimas 6 horas)0.0 mm/hora
Lluvia de ayer 0.0 mm Punto de rocío 18.7°C (Wet Bulb :21.6°C )
Humedad 60 %, Humidex 33.6°C Barómetro corregido a msl1009.7 mb
cambio de presión+0.2 mb (última hora) Tendencia (últimas 1 hora)ESTACIONARIO
cambio de presión (últimas 12 horas)-4.2 mb cambio de presión (últimas 6 horas)-1.5 mb
Current Temp. Interna 34.1°C
Current Hum. Interna 42%


Última imagen cámara web


Weather report/warning/Metars

Murcia / Alcantarilla, Spain (LERI) 37-57N 001-14W 75M
Jun 29, 2022 - 02:00 PM EDT / 2022.06.29 1800 UTC
Wind: from the SSE (150 degrees) at 14 MPH (12 KT) (direction variable):0
Visibility: greater than 7 mile(s):0
Temperature: 84 F (29 C)
Dew Point: 60 F (16 C)
Relative Humidity: 45%
Pressure (altimeter): 29.85 in. Hg (1011 hPa)
ob: LERI 291800Z 15012KT 110V170 CAVOK 29/16 Q1011 NOSIG
cycle: 18
Station name not available
Jun 29, 2022 - 03:00 PM EDT / 2022.06.29 1900 UTC
Wind: from the SSE (160 degrees) at 7 MPH (6 KT):0
Visibility: greater than 7 mile(s):0
Temperature: 78 F (26 C)
Dew Point: 59 F (15 C)
Relative Humidity: 50%
Pressure (altimeter): 29.88 in. Hg (1012 hPa)
ob: LEMI 291900Z 16006KT CAVOK 26/15 Q1012
cycle: 19
Alicante / El Altet, Spain (LEAL) 38-17N 000-33W 31M
Jun 29, 2022 - 03:00 PM EDT / 2022.06.29 1900 UTC
Wind: from the ESE (120 degrees) at 6 MPH (5 KT) (direction variable):0
Visibility: greater than 7 mile(s):0
Temperature: 77 F (25 C)
Dew Point: 68 F (20 C)
Relative Humidity: 73%
Pressure (altimeter): 29.85 in. Hg (1011 hPa)
ob: LEAL 291900Z 12005KT 080V170 CAVOK 25/20 Q1011 NOSIG
cycle: 19



La informacion se graba a intervalos de 2 minutos, pero hay info grabada cada minuto. Optimizado para 800*600 y Color verdadero. Use el boton de

Use the RECARGA en su navegador para recojer la ulima info.

Clicar aquí para regarga diaria de medias/extremas del mes














Created by "Weather Display" software version 10.37S at this start time/date 1:28:59 29/06/2022

La estación de MeteoMurcia.com, publica sus datos en los siguientes proyectos:

Weather Underground PWS IMURCIAP2 Meteoclimatic www.awekas.at

W3Counter
Web Analytics